M I D A S
Marine Information and Data Acquisition System
Tripno 1108 of the Zeeleeuw from 2006-06-02 06:35:58 to 2006-06-02 14:54:49
Back to CruiseResearch ActivitiesStationsMapUnderway DataData graphs

EquipmentUnitsComment
TimeDGPSUTC
LatitudeDGPSDM.mWGS84
LongitudeDGPSDM.mWGS84
TemperatureSBE03/SBE38deg celciusITS90
ConductivitySBE21S/mITS90
SalinitySBE21 Practical Salinity Units
ChlorophylAChelsea fluorimeterg/lCalibrated in Aceton
Missing or incorrect values are displayed as -999
Sea surface data collected by the RV Zeeleeuw from 2006-06-02 06:32:24 to 2006-06-02 15:07:40
Time Latitude Longitude Temperature Conductivity Salinity ChlorophylA
2006-06-02 06:33:29 51°13.609 2°56.051 13.8625 3.599332 26.578615 29.658341
2006-06-02 06:34:29 51°13.626 2°55.96 13.2576 3.446023 28.166504 23.253554
2006-06-02 06:35:29 51°13.669 2°55.86 13.028 3.397689 28.111057 22.95017
2006-06-02 06:36:29 51°13.718 2°55.776 12.9324 3.439396 28.652926 24.096289
2006-06-02 06:37:29 51°13.732 2°55.748 12.8769 3.379579 28.155339 25.276118
2006-06-02 06:38:29 51°13.736 2°55.733 12.8827 3.339669 27.81868 26.051435
2006-06-02 06:39:29 51°13.724 2°55.7 12.8469 3.285862 27.332573 26.691913
2006-06-02 06:40:29 51°13.76 2°55.692 12.8546 3.296182 27.451743 27.332392
2006-06-02 06:41:29 51°13.855 2°55.625 12.8775 3.241641 26.948053 27.972871
2006-06-02 06:42:29 51°13.973 2°55.539 12.8473 3.176052 26.331382 28.377383
2006-06-02 06:43:29 51°14.091 2°55.457 12.8237 3.281652 27.341421 28.916734
2006-06-02 06:44:29 51°14.204 2°55.358 12.8 3.308291 27.603559 29.321247
2006-06-02 06:45:29 51°14.3 2°55.196 12.8128 3.266806 27.220816 29.624631
2006-06-02 06:46:29 51°14.411 2°55.019 12.7619 3.318084 27.700835 29.860597
2006-06-02 06:47:29 51°14.566 2°54.898 12.701 3.515969 29.582321 30.298819
2006-06-02 06:48:28 51°14.752 2°54.832 12.6754 3.65628 30.922794 30.029144
2006-06-02 06:49:29 51°14.954 2°54.747 12.6682 3.667869 31.054809 29.11899
2006-06-02 06:50:29 51°15.157 2°54.663 12.6769 3.732556 31.670951 28.175127
2006-06-02 06:51:29 51°15.366 2°54.579 12.6299 3.772277 32.044194 28.309965
2006-06-02 06:52:28 51°15.572 2°54.502 12.6285 3.75131 31.877678 27.972871
2006-06-02 06:53:29 51°15.788 2°54.437 12.6654 3.746253 31.830524 28.175127
2006-06-02 06:54:28 51°15.998 2°54.372 12.718 3.767114 31.984817 28.208836
2006-06-02 06:55:28 51°16.169 2°54.32 12.7403 3.766482 31.953105 28.647059
2006-06-02 06:56:29 51°16.248 2°54.302 12.7539 3.868793 32.791829 28.815606
2006-06-02 06:57:29 51°16.247 2°54.317 12.7743 3.782391 32.074895 28.54593
2006-06-02 06:58:29 51°16.245 2°54.328 12.7583 3.785763 32.098118 28.343674
2006-06-02 06:59:29 51°16.244 2°54.338 12.7644 3.787975 32.128272 28.276255
2006-06-02 07:00:29 51°16.243 2°54.347 12.7691 3.785025 32.097112 28.309965
2006-06-02 07:01:29 51°16.243 2°54.355 12.7747 3.787765 32.118336 28.309965
2006-06-02 07:02:29 51°16.244 2°54.363 12.7711 3.787659 32.114694 28.343674
2006-06-02 07:03:29 51°16.245 2°54.371 12.7696 3.787132 32.112369 28.343674
2006-06-02 07:04:29 51°16.247 2°54.379 12.7713 3.786816 32.110709 28.444802
2006-06-02 07:05:29 51°16.263 2°54.34 12.7681 3.786606 32.10872 28.444802
2006-06-02 07:06:29 51°16.347 2°54.178 12.7802 3.786816 32.108724 28.478512
2006-06-02 07:07:29 51°16.489 2°53.976 12.7676 3.791558 32.150827 27.972871
2006-06-02 07:08:29 51°16.651 2°53.757 12.7752 3.799565 32.221778 28.242546
2006-06-02 07:09:29 51°16.818 2°53.533 12.7578 3.805361 32.267187 27.43352
2006-06-02 07:10:29 51°16.982 2°53.309 12.738 3.804623 32.281506 27.332392
2006-06-02 07:11:29 51°17.15 2°53.087 12.7469 3.826646 32.507059 26.455947
2006-06-02 07:12:29 51°17.304 2°52.843 12.6884 3.838236 32.610683 25.984016
2006-06-02 07:13:29 51°17.452 2°52.586 12.7075 3.855307 32.808832 26.388529
2006-06-02 07:14:29 51°17.601 2°52.338 12.7323 3.856045 32.817181 26.523366
2006-06-02 07:15:29 51°17.748 2°52.093 12.6921 3.865528 32.873165 26.085144
2006-06-02 07:16:29 51°17.894 2°51.842 12.7024 3.886499 33.117055 25.444665
2006-06-02 07:17:29 51°18.044 2°51.598 12.6993 3.894402 33.188007 25.512084
2006-06-02 07:18:29 51°18.196 2°51.358 12.711 3.899355 33.228189 25.545794
2006-06-02 07:19:29 51°18.337 2°51.159 12.7019 3.902411 33.251036 25.613212
2006-06-02 07:20:29 51°18.422 2°51.04 12.7018 3.899882 33.233881 25.680631
2006-06-02 07:21:29 51°18.468 2°50.993 12.7209 3.899249 33.225129 25.714341
2006-06-02 07:22:29 51°18.473 2°50.987 12.7265 3.901251 33.22973 25.512084
2006-06-02 07:23:29 51°18.476 2°50.98 12.7242 3.902411 33.242795 25.512084
2006-06-02 07:24:29 51°18.48 2°50.976 12.72 3.902411 33.242795 25.478375
2006-06-02 07:25:29 51°18.484 2°50.97 12.7263 3.902621 33.245483 25.444665
2006-06-02 07:26:28 51°18.487 2°50.966 12.7266 3.903043 33.248113 25.343537
2006-06-02 07:27:28 51°18.489 2°50.959 12.7306 3.903148 33.248427 25.309828
2006-06-02 07:28:29 51°18.493 2°50.954 12.7259 3.903043 33.248113 25.276118
2006-06-02 07:29:29 51°18.495 2°50.947 12.7256 3.903675 33.25343 25.242409
2006-06-02 07:30:29 51°18.499 2°50.937 12.7301 3.903253 33.245308 25.2087
2006-06-02 07:31:29 51°18.529 2°50.891 12.7592 3.903464 33.247309 25.2087
2006-06-02 07:32:29 51°18.641 2°50.921 12.7913 3.90652 33.236526 25.006443
2006-06-02 07:33:29 51°18.736 2°51.18 12.8344 3.902726 33.169774 24.905315
2006-06-02 07:34:29 51°18.799 2°51.498 12.7831 3.897983 33.118715 25.17499
2006-06-02 07:35:29 51°18.852 2°51.825 12.7684 3.885971 33.045129 25.2087
2006-06-02 07:36:29 51°18.912 2°52.148 12.7621 3.878068 32.981124 24.972734
2006-06-02 07:37:29 51°18.973 2°52.467 12.8046 3.879648 32.985218 24.60193
2006-06-02 07:38:29 51°19.032 2°52.785 12.8081 3.873852 32.901145 24.770477
2006-06-02 07:39:29 51°19.1 2°53.099 12.8292 3.85931 32.774371 25.17499
2006-06-02 07:40:29 51°19.164 2°53.413 12.8246 3.848351 32.636423 25.646922
2006-06-02 07:41:29 51°19.227 2°53.729 12.8303 3.837498 32.537937 26.017725
2006-06-02 07:42:29 51°19.292 2°54.047 12.8324 3.834547 32.510077 26.017725
2006-06-02 07:43:29 51°19.362 2°54.369 12.8632 3.84677 32.610085 25.984016
2006-06-02 07:44:29 51°19.431 2°54.691 12.8423 3.848456 32.626676 26.388529
2006-06-02 07:45:29 51°19.499 2°55.013 12.8444 3.842556 32.573639 26.354819
2006-06-02 07:46:29 51°19.563 2°55.332 12.8476 3.836128 32.504934 26.826751
2006-06-02 07:47:29 51°19.629 2°55.651 12.83 3.832335 32.485173 27.163845
2006-06-02 07:48:29 51°19.695 2°55.97 12.8478 3.826539 32.427134 27.399811
2006-06-02 07:49:29 51°19.759 2°56.289 12.8571 3.823167 32.37467 27.264973
2006-06-02 07:50:29 51°19.823 2°56.604 12.8442 3.813473 32.298551 27.366101
2006-06-02 07:51:29 51°19.883 2°56.92 12.843 3.803463 32.209475 27.804324
2006-06-02 07:52:29 51°19.948 2°57.233 12.8391 3.797036 32.147565 27.838033
2006-06-02 07:53:29 51°20.009 2°57.546 12.8311 3.791346 32.097907 28.141418
2006-06-02 07:54:29 51°20.07 2°57.861 12.8334 3.789344 32.090925 27.871742
2006-06-02 07:55:29 51°20.131 2°58.174 12.8372 3.788607 32.072092 27.635777
2006-06-02 07:56:29 51°20.195 2°58.481 12.8675 3.787974 32.0602 27.568358
2006-06-02 07:57:29 51°20.258 2°58.79 12.8671 3.785445 32.008073 28.040289
2006-06-02 07:58:28 51°20.32 2°59.095 12.8756 3.78829 32.036823 28.040289
2006-06-02 07:59:29 51°20.381 2°59.412 12.8991 3.790081 32.051708 28.00658
2006-06-02 08:00:28 51°20.442 2°59.719 12.8802 3.788711 32.017108 27.838033
2006-06-02 08:01:27 51°20.502 3°0.027 12.9214 3.789133 32.037516 28.175127
2006-06-02 08:02:28 51°20.569 3°0.342 12.9181 3.790713 32.014251 28.276255
2006-06-02 08:03:29 51°20.641 3°0.655 12.9069 3.793347 32.057429 28.478512
2006-06-02 08:04:29 51°20.708 3°0.966 12.9041 3.788184 32.001641 28.647059
2006-06-02 08:05:29 51°20.777 3°1.275 12.9285 3.782284 31.95863 28.54593
2006-06-02 08:06:29 51°20.843 3°1.583 12.8823 3.784391 31.963355 28.647059
2006-06-02 08:07:28 51°20.91 3°1.885 12.9072 3.779123 31.938742 29.253828
2006-06-02 08:08:29 51°20.984 3°2.194 12.9456 3.777859 31.906537 28.647059
2006-06-02 08:09:28 51°21.058 3°2.492 12.9083 3.780809 31.91462 28.984153
2006-06-02 08:10:29 51°21.13 3°2.804 12.9226 3.775646 31.885741 28.984153
2006-06-02 08:11:28 51°21.193 3°3.109 12.9468 3.776383 31.877627 28.647059
2006-06-02 08:12:29 51°21.262 3°3.422 12.9787 3.778385 31.875513 28.276255
2006-06-02 08:13:28 51°21.328 3°3.726 12.9872 3.782915 31.887338 27.939161
2006-06-02 08:14:29 51°21.39 3°4.04 12.9622 3.784391 31.921438 27.939161
2006-06-02 08:15:28 51°21.453 3°4.342 12.9406 3.784917 31.930963 27.838033
2006-06-02 08:16:29 51°21.521 3°4.653 12.9224 3.785761 31.960492 28.107708
2006-06-02 08:17:29 51°21.583 3°4.96 12.9354 3.784496 31.963689 28.00658
2006-06-02 08:18:28 51°21.647 3°5.259 12.9472 3.789132 31.986927 27.905452
2006-06-02 08:19:29 51°21.706 3°5.57 12.9593 3.790502 31.996517 28.040289
2006-06-02 08:20:29 51°21.746 3°5.881 12.9381 3.789238 31.988573 28.242546
2006-06-02 08:21:29 51°21.789 3°6.194 12.9148 3.787763 31.985863 28.208836
2006-06-02 08:22:28 51°21.826 3°6.501 12.9638 3.786815 31.991389 28.175127
2006-06-02 08:23:29 51°21.867 3°6.816 12.961 3.792398 31.999904 28.040289
2006-06-02 08:24:29 51°21.902 3°7.128 12.9501 3.79282 32.002551 27.905452
2006-06-02 08:25:28 51°21.936 3°7.433 12.9413 3.792293 32.008098 27.838033
2006-06-02 08:26:29 51°21.972 3°7.747 12.9836 3.79282 32.020267 28.00658
2006-06-02 08:27:29 51°21.999 3°8.059 12.9192 3.794822 32.025291 27.939161
2006-06-02 08:28:29 51°22.032 3°8.366 12.9345 3.79124 32.02643 28.040289
2006-06-02 08:29:29 51°22.06 3°8.667 12.9276 3.765215 31.756451 27.568358
2006-06-02 08:30:29 51°22.1 3°8.963 12.8876 3.752466 31.66345 27.534648
2006-06-02 08:31:29 51°22.14 3°9.259 12.8806 3.758578 31.748837 27.500939
2006-06-02 08:32:29 51°22.173 3°9.557 12.9604 3.736873 31.531991 27.231264
2006-06-02 08:33:29 51°22.199 3°9.852 12.9643 3.729181 31.413394 27.332392
2006-06-02 08:34:29 51°22.228 3°10.149 12.8924 3.759209 31.704646 27.43352
2006-06-02 08:35:29 51°22.258 3°10.449 12.8946 3.782916 31.970482 27.43352
2006-06-02 08:36:29 51°22.291 3°10.749 12.8996 3.787342 32.010797 27.399811
2006-06-02 08:37:29 51°22.318 3°11.052 12.8928 3.783127 31.960651 27.096426
2006-06-02 08:38:29 51°22.348 3°11.35 12.8846 3.775857 31.905401 27.062717
2006-06-02 08:39:29 51°22.38 3°11.647 12.89 3.771537 31.870672 26.995298
2006-06-02 08:40:29 51°22.413 3°11.945 12.9421 3.76806 31.81315 26.725623
2006-06-02 08:41:29 51°22.445 3°12.24 12.9157 3.777437 31.885563 26.725623
2006-06-02 08:42:29 51°22.474 3°12.536 12.8929 3.789554 32.023722 26.927879
2006-06-02 08:43:29 51°22.496 3°12.835 12.9018 3.793242 32.063678 26.86046
2006-06-02 08:44:29 51°22.531 3°13.035 12.9395 3.792188 32.040607 26.624494
2006-06-02 08:45:29 51°22.558 3°13.135 12.9952 3.790291 31.995194 26.253691
2006-06-02 08:46:29 51°22.583 3°13.163 13.0875 3.786708 31.900067 25.950306
2006-06-02 08:47:29 51°22.59 3°13.136 13.1364 3.787128 31.829153 25.646922
2006-06-02 08:48:29 51°22.597 3°13.102 13.1607 3.793134 31.856742 25.613212
2006-06-02 08:49:29 51°22.603 3°13.064 13.1851 3.799455 31.891147 25.512084
2006-06-02 08:50:29 51°22.608 3°13.023 13.1977 3.805566 31.932644 25.444665
2006-06-02 08:51:29 51°22.611 3°12.982 13.1823 3.812521 31.995656 25.410956
2006-06-02 08:52:29 51°22.613 3°12.942 13.1765 3.816314 32.040227 25.377247
2006-06-02 08:53:29 51°22.615 3°12.902 13.1536 3.819054 32.076936 25.410956
2006-06-02 08:54:29 51°22.625 3°12.867 13.1172 3.819581 32.105404 25.410956
2006-06-02 08:55:29 51°22.697 3°12.915 13.1583 3.820319 32.124749 25.410956
2006-06-02 08:56:29 51°22.811 3°13.061 13.0378 3.825587 32.145892 25.444665
2006-06-02 08:57:29 51°22.944 3°13.258 13.0674 3.826853 32.255003 26.186272
2006-06-02 08:58:28 51°23.075 3°13.467 12.9787 3.830119 32.289623 26.085144
2006-06-02 08:59:29 51°23.21 3°13.685 12.9745 3.827486 32.303209 27.500939
2006-06-02 09:00:29 51°23.339 3°13.905 12.9326 3.83012 32.353805 29.287537
2006-06-02 09:01:29 51°23.469 3°14.124 12.9219 3.830437 32.382664 29.793178
2006-06-02 09:02:29 51°23.602 3°14.338 12.9286 3.825274 32.342687 30.366238
2006-06-02 09:03:29 51°23.733 3°14.548 12.9413 3.819689 32.278854 29.961725
2006-06-02 09:04:29 51°23.869 3°14.754 12.9315 3.808941 32.17247 29.456084
2006-06-02 09:05:29 51°23.973 3°14.915 12.9096 3.806623 32.165184 28.411093
2006-06-02 09:06:29 51°24.027 3°15.04 12.8991 3.792821 32.055105 27.568358
2006-06-02 09:07:29 51°24.062 3°15.153 12.9326 3.780703 31.9359 27.298683
2006-06-02 09:08:27 51°24.094 3°15.257 12.9507 3.776383 31.859983 26.89417
2006-06-02 09:09:29 51°24.111 3°15.374 12.9223 3.776172 31.864537 27.062717
2006-06-02 09:10:29 51°24.128 3°15.487 12.9517 3.774276 31.859792 27.062717
2006-06-02 09:11:29 51°24.152 3°15.598 12.9738 3.771431 31.801761 26.624494
2006-06-02 09:12:29 51°24.178 3°15.711 13.0136 3.770272 31.777214 26.590785
2006-06-02 09:13:29 51°24.233 3°15.862 13.1289 3.773642 31.760063 26.186272
2006-06-02 09:14:29 51°24.309 3°16.067 13.02 3.779542 31.77052 26.2874
2006-06-02 09:15:29 51°24.436 3°16.282 13.077 3.7728 31.762558 26.557076
2006-06-02 09:16:29 51°24.605 3°16.449 13.0217 3.776171 31.760374 26.489657
2006-06-02 09:17:29 51°24.774 3°16.618 12.9927 3.773116 31.790876 26.995298
2006-06-02 09:18:29 51°24.947 3°16.782 12.9632 3.79145 31.973964 26.86046
2006-06-02 09:19:29 51°25.118 3°16.952 13.0713 3.793347 32.00422 26.725623
2006-06-02 09:20:29 51°25.285 3°17.125 13.0335 3.801142 31.987031 26.219982
2006-06-02 09:21:29 51°25.446 3°17.305 12.8696 3.819793 32.216419 26.32111
2006-06-02 09:22:29 51°25.607 3°17.487 12.7585 3.871007 32.849189 26.86046
2006-06-02 09:23:29 51°25.752 3°17.614 12.7524 3.88713 33.06225 26.725623
2006-06-02 09:24:29 51°25.842 3°17.667 12.7632 3.889448 33.085592 26.152563
2006-06-02 09:25:29 51°25.885 3°17.736 12.7553 3.887657 33.071337 26.961589
2006-06-02 09:26:29 51°25.902 3°17.727 12.7601 3.885971 33.056035 27.130136
2006-06-02 09:27:29 51°25.901 3°17.686 12.7613 3.884496 33.038642 26.995298
2006-06-02 09:28:29 51°25.901 3°17.644 12.7556 3.883231 33.028019 27.264973
2006-06-02 09:29:27 51°25.9 3°17.605 12.7532 3.88302 33.02534 27.43352
2006-06-02 09:30:29 51°25.899 3°17.564 12.7594 3.882915 33.024342 27.635777
2006-06-02 09:31:29 51°25.897 3°17.525 12.7752 3.882388 33.017305 27.332392
2006-06-02 09:32:29 51°25.894 3°17.484 12.7878 3.882072 32.999336 26.658204
2006-06-02 09:33:29 51°25.891 3°17.443 12.7851 3.882072 32.992536 26.489657
2006-06-02 09:34:29 51°25.906 3°17.411 12.7899 3.881966 32.994258 26.624494
2006-06-02 09:35:29 51°25.973 3°17.285 12.7777 3.881966 32.996298 26.826751
2006-06-02 09:36:29 51°25.947 3°17.013 12.769 3.882388 33.009816 27.500939
2006-06-02 09:37:29 51°25.905 3°16.677 12.748 3.886603 33.053847 27.939161
2006-06-02 09:38:29 51°25.854 3°16.323 12.7392 3.891767 33.117135 28.208836
2006-06-02 09:39:28 51°25.811 3°15.968 12.735 3.896193 33.170066 28.478512
2006-06-02 09:40:28 51°25.77 3°15.603 12.7616 3.893348 33.132811 28.377383
2006-06-02 09:41:29 51°25.716 3°15.239 12.8083 3.881334 32.99507 27.635777
2006-06-02 09:42:28 51°25.672 3°14.884 12.8826 3.877434 32.907265 27.231264
2006-06-02 09:43:29 51°25.629 3°14.515 12.9098 3.869636 32.77958 27.062717
2006-06-02 09:44:28 51°25.581 3°14.158 12.9317 3.860784 32.678606 26.961589
2006-06-02 09:45:29 51°25.525 3°13.785 12.9309 3.855515 32.623575 26.759332
2006-06-02 09:46:28 51°25.477 3°13.415 12.9407 3.851722 32.573118 26.557076
2006-06-02 09:47:29 51°25.456 3°13.022 12.9456 3.845505 32.512561 26.826751
2006-06-02 09:48:28 51°25.426 3°12.642 12.9105 3.845926 32.5232 26.826751
2006-06-02 09:49:29 51°25.406 3°12.246 12.8957 3.84835 32.580783 26.927879
2006-06-02 09:50:29 51°25.398 3°11.856 12.8987 3.858255 32.670855 27.029007
2006-06-02 09:51:29 51°25.451 3°11.48 12.895 3.865948 32.744101 27.096426
2006-06-02 09:52:29 51°25.549 3°11.141 12.8525 3.880911 32.888047 27.096426
2006-06-02 09:53:29 51°25.679 3°10.852 12.8091 3.900723 33.120111 27.264973
2006-06-02 09:54:29 51°25.81 3°10.576 12.7829 3.914107 33.275563 27.163845
2006-06-02 09:55:28 51°25.931 3°10.292 12.7622 3.922748 33.391869 26.961589
2006-06-02 09:56:29 51°26.058 3°9.999 12.7489 3.924119 33.420724 26.793042
2006-06-02 09:57:28 51°26.114 3°9.662 12.775 3.922432 33.400578 26.523366
2006-06-02 09:58:29 51°26.21 3°9.331 12.7782 3.920535 33.363986 26.422238
2006-06-02 09:59:29 51°26.299 3°9 12.7937 3.917584 33.328433 26.32111
2006-06-02 10:00:29 51°26.358 3°8.753 12.8011 3.915266 33.299582 26.085144
2006-06-02 10:01:28 51°26.391 3°8.61 12.8059 3.914634 33.284671 25.882888
2006-06-02 10:02:29 51°26.425 3°8.517 12.8146 3.914001 33.277306 25.74805
2006-06-02 10:03:28 51°26.438 3°8.476 12.8195 3.914107 33.270081 25.545794
2006-06-02 10:04:28 51°26.427 3°8.464 12.8093 3.914001 33.264973 25.613212
2006-06-02 10:05:29 51°26.417 3°8.45 12.8138 3.912737 33.261895 25.815469
2006-06-02 10:06:29 51°26.409 3°8.436 12.832 3.913263 33.258668 25.579503
2006-06-02 10:07:29 51°26.4 3°8.419 12.8387 3.914633 33.261376 25.579503
2006-06-02 10:08:29 51°26.392 3°8.403 12.8444 3.914844 33.262003 25.512084
2006-06-02 10:09:28 51°26.402 3°8.357 12.8299 3.915371 33.261517 25.512084
2006-06-02 10:10:28 51°26.49 3°8.19 12.8362 3.914422 33.258695 25.545794
2006-06-02 10:11:29 51°26.618 3°7.932 12.821 3.913896 33.255073 25.646922
2006-06-02 10:12:29 51°26.726 3°7.624 12.8243 3.911156 33.235963 25.545794
2006-06-02 10:13:28 51°26.843 3°7.329 12.8263 3.909154 33.220416 25.613212
2006-06-02 10:14:29 51°26.963 3°7.025 12.8669 3.906624 33.188942 25.545794
2006-06-02 10:15:28 51°27.078 3°6.733 13.0557 3.910628 33.155896 25.006443
2006-06-02 10:16:29 51°27.196 3°6.437 12.9101 3.925169 33.219716 24.60193
2006-06-02 10:17:28 51°27.308 3°6.147 12.9669 3.922641 33.243524 24.298546
2006-06-02 10:18:29 51°27.428 3°5.849 12.9154 3.931177 33.328291 24.163708
2006-06-02 10:19:28 51°27.541 3°5.558 12.8826 3.944667 33.49571 24.163708
2006-06-02 10:20:28 51°27.658 3°5.261 12.8987 3.957945 33.615269 24.129999
2006-06-02 10:21:28 51°27.772 3°4.965 12.9936 3.964584 33.659499 24.231127
2006-06-02 10:22:29 51°27.891 3°4.668 12.8908 3.964373 33.622983 24.06258
2006-06-02 10:23:29 51°28.008 3°4.376 12.9923 3.961212 33.644146 24.028871
2006-06-02 10:24:29 51°28.12 3°4.079 13.0633 3.967428 33.583713 23.927742
2006-06-02 10:25:28 51°28.214 3°3.838 12.9374 3.975332 33.654223 23.961452
2006-06-02 10:26:28 51°28.273 3°3.666 12.8476 3.970486 33.727171 23.995161
2006-06-02 10:27:28 51°28.294 3°3.564 12.8662 3.969117 33.763443 23.995161
2006-06-02 10:28:29 51°28.283 3°3.541 12.8468 3.973016 33.777511 23.894033
2006-06-02 10:29:29 51°28.268 3°3.532 12.795 3.971646 33.804839 24.096289
2006-06-02 10:30:29 51°28.254 3°3.521 12.7928 3.969012 33.811851 24.197418
2006-06-02 10:31:29 51°28.241 3°3.509 12.797 3.969433 33.806798 24.096289
2006-06-02 10:32:28 51°28.228 3°3.497 12.7974 3.969539 33.808496 24.096289
2006-06-02 10:33:29 51°28.215 3°3.484 12.7936 3.969328 33.809977 24.096289
2006-06-02 10:34:28 51°28.204 3°3.471 12.7895 3.969012 33.806276 24.096289
2006-06-02 10:35:28 51°28.19 3°3.395 12.8026 3.96838 33.807932 24.06258
2006-06-02 10:36:28 51°28.169 3°3.135 12.8138 3.970487 33.802184 23.961452
2006-06-02 10:37:28 51°28.143 3°2.791 12.7813 3.969223 33.804795 23.927742
2006-06-02 10:38:28 51°28.08 3°2.433 12.8721 3.970277 33.819687 23.860324
2006-06-02 10:39:29 51°28.019 3°2.067 12.8596 3.981025 33.839573 23.691777
2006-06-02 10:40:28 51°27.957 3°1.709 12.8681 3.98229 33.862008 23.691777
2006-06-02 10:41:28 51°27.894 3°1.343 13.0189 3.98798 33.872132 23.624358
2006-06-02 10:42:28 51°27.831 3°0.976 13.0164 3.998097 33.907473 23.590648
2006-06-02 10:43:28 51°27.763 3°0.614 13.0053 4.000099 33.925033 23.52323
2006-06-02 10:44:28 51°27.695 3°0.255 12.8933 3.988085 33.816899 23.725486
2006-06-02 10:45:28 51°27.63 2°59.897 12.9735 3.977652 33.751409 23.860324
2006-06-02 10:46:28 51°27.562 2°59.539 12.9153 3.974069 33.719567 23.894033
2006-06-02 10:47:29 51°27.498 2°59.176 12.9816 3.967746 33.679068 23.927742
2006-06-02 10:48:29 51°27.432 2°58.82 12.9233 3.961843 33.590789 23.927742
2006-06-02 10:49:29 51°27.365 2°58.465 12.9242 3.957629 33.58812 23.961452
2006-06-02 10:50:29 51°27.299 2°58.109 12.9107 3.954994 33.565249 23.995161
2006-06-02 10:51:28 51°27.232 2°57.761 12.9032 3.953308 33.541026 23.995161
2006-06-02 10:52:28 51°27.168 2°57.403 12.8686 3.953097 33.567972 24.129999
2006-06-02 10:53:28 51°27.1 2°57.048 12.9076 3.954256 33.578951 24.096289
2006-06-02 10:54:28 51°27.036 2°56.69 12.8811 3.956996 33.598691 24.197418
2006-06-02 10:55:28 51°26.972 2°56.327 12.8534 3.957524 33.634775 24.264836
2006-06-02 10:56:29 51°26.908 2°55.962 12.9021 3.95784 33.644691 24.197418
2006-06-02 10:57:29 51°26.844 2°55.604 12.8718 3.960053 33.6304 24.197418
2006-06-02 10:58:29 51°26.772 2°55.248 12.8775 3.962266 33.671426 24.129999
2006-06-02 10:59:29 51°26.667 2°54.91 12.9331 3.968694 33.688049 23.927742
2006-06-02 11:00:27 51°26.57 2°54.579 12.9217 3.97154 33.726072 23.927742
2006-06-02 11:01:28 51°26.47 2°54.226 12.8908 3.976493 33.770226 23.860324
2006-06-02 11:02:29 51°26.365 2°53.878 12.903 3.977125 33.797733 23.792905
2006-06-02 11:03:29 51°26.289 2°53.523 12.9548 3.979444 33.80235 23.759195
2006-06-02 11:04:29 51°26.225 2°53.162 13.1064 3.98682 33.81117 23.658067
2006-06-02 11:05:29 51°26.163 2°52.799 13.0884 3.998411 33.796924 23.48952
2006-06-02 11:06:29 51°26.1 2°52.434 13.0497 3.990824 33.766722 23.590648
2006-06-02 11:07:29 51°26.036 2°52.068 13.024 3.986819 33.755137 23.691777
2006-06-02 11:08:28 51°26.007 2°51.7 12.9824 3.985239 33.770603 23.792905
2006-06-02 11:09:29 51°25.982 2°51.318 12.9338 3.984818 33.790146 23.826614
2006-06-02 11:10:29 51°25.955 2°50.939 12.9186 3.986926 33.852414 23.860324
2006-06-02 11:11:28 51°25.928 2°50.566 12.9164 3.986505 33.858149 23.725486
2006-06-02 11:12:29 51°25.902 2°50.179 12.9097 3.987769 33.875003 23.691777
2006-06-02 11:13:28 51°25.875 2°49.806 12.8999 3.988086 33.885654 23.658067
2006-06-02 11:14:29 51°25.853 2°49.421 12.9214 3.987137 33.885014 23.691777
2006-06-02 11:15:29 51°25.883 2°49.05 12.9239 3.989877 33.899855 23.725486
2006-06-02 11:16:29 51°25.926 2°48.799 12.9509 3.992828 33.913902 23.590648
2006-06-02 11:17:29 51°25.954 2°48.634 12.9762 3.998097 33.926938 23.48952
2006-06-02 11:18:28 51°25.974 2°48.544 12.9928 4.000626 33.945323 23.422101
2006-06-02 11:19:29 51°25.963 2°48.513 12.9743 4.003261 33.962613 23.422101
2006-06-02 11:20:29 51°25.943 2°48.503 12.9368 4.006528 34.012369 23.48952
2006-06-02 11:21:29 51°25.923 2°48.489 12.9217 4.008953 34.061883 23.48952
2006-06-02 11:22:28 51°25.904 2°48.47 12.9095 4.009585 34.086772 23.52323
2006-06-02 11:23:29 51°25.884 2°48.451 12.9038 4.009164 34.088374 23.556939
2006-06-02 11:24:29 51°25.866 2°48.429 12.9041 4.009164 34.087674 23.52323
2006-06-02 11:25:28 51°25.849 2°48.408 12.9009 4.008742 34.088576 23.556939
2006-06-02 11:26:29 51°25.836 2°48.349 12.9038 4.008532 34.088677 23.590648
2006-06-02 11:27:28 51°25.799 2°48.17 13.0175 4.008321 34.071974 23.52323
2006-06-02 11:28:29 51°25.684 2°47.922 13.1277 4.013483 33.99324 23.253554
2006-06-02 11:29:28 51°25.548 2°47.624 13.0918 4.017593 33.995948 23.219845
2006-06-02 11:30:29 51°25.446 2°47.274 13.1997 4.016644 33.996712 23.253554
2006-06-02 11:31:29 51°25.351 2°46.928 13.043 4.035404 34.117535 23.051298
2006-06-02 11:32:29 51°25.255 2°46.58 12.9315 4.028239 34.182399 23.085007
2006-06-02 11:33:29 51°25.157 2°46.233 12.9167 4.018227 34.159664 23.051298
2006-06-02 11:34:29 51°25.06 2°45.884 12.9092 4.016014 34.144273 23.051298
2006-06-02 11:35:28 51°24.964 2°45.54 12.9147 3.998835 33.982006 23.017589
2006-06-02 11:36:29 51°24.866 2°45.182 12.8777 4.015698 34.144779 23.017589
2006-06-02 11:37:27 51°24.771 2°44.843 12.8784 4.012115 34.150762 23.051298
2006-06-02 11:38:29 51°24.667 2°44.479 12.8499 4.01201 34.142738 23.085007
2006-06-02 11:39:27 51°24.571 2°44.137 12.848 4.015277 34.198388 23.085007
2006-06-02 11:40:29 51°24.473 2°43.77 12.8451 4.016964 34.216533 23.085007
2006-06-02 11:41:29 51°24.376 2°43.415 12.8575 4.018228 34.223627 23.051298
2006-06-02 11:42:29 51°24.277 2°43.063 12.8686 4.021601 34.244417 23.017589
2006-06-02 11:43:28 51°24.181 2°42.713 12.8753 4.024341 34.27117 22.983879
2006-06-02 11:44:29 51°24.081 2°42.354 12.8827 4.027924 34.290424 22.91646
2006-06-02 11:45:29 51°23.982 2°42.002 12.8908 4.032245 34.339263 22.882751
2006-06-02 11:46:29 51°23.884 2°41.65 12.8962 4.038042 34.367521 22.849042
2006-06-02 11:47:28 51°23.788 2°41.304 12.8362 4.040361 34.424224 22.882751
2006-06-02 11:48:29 51°23.691 2°40.944 12.823 4.040256 34.445192 22.849042
2006-06-02 11:49:29 51°23.593 2°40.593 12.7332 4.041732 34.486224 22.849042
2006-06-02 11:50:29 51°23.482 2°40.251 12.6275 4.037412 34.534752 22.882751
2006-06-02 11:51:29 51°23.374 2°39.906 12.5746 4.030879 34.5631 22.91646
2006-06-02 11:52:29 51°23.258 2°39.566 12.5751 4.028877 34.57619 22.882751
2006-06-02 11:53:29 51°23.136 2°39.231 12.5741 4.030141 34.583285 22.849042
2006-06-02 11:54:28 51°23.018 2°38.9 12.5534 4.02972 34.602224 22.849042
2006-06-02 11:55:29 51°22.896 2°38.558 12.5432 4.02972 34.61876 22.849042
2006-06-02 11:56:28 51°22.778 2°38.229 12.6192 4.033619 34.625234 22.815332
2006-06-02 11:57:29 51°22.656 2°37.889 12.6942 4.042261 34.642655 22.747913
2006-06-02 11:58:29 51°22.54 2°37.553 12.8659 4.050586 34.634842 22.680494
2006-06-02 11:59:28 51°22.426 2°37.223 12.8476 4.056487 34.574122 22.613076
2006-06-02 12:00:29 51°22.308 2°36.882 12.7614 4.047634 34.552433 22.680494
2006-06-02 12:01:29 51°22.194 2°36.544 12.6999 4.039414 34.530326 22.680494
2006-06-02 12:02:28 51°22.079 2°36.214 12.7907 4.036463 34.530689 22.680494
2006-06-02 12:03:29 51°21.944 2°35.886 12.6925 4.044579 34.619673 22.815332
2006-06-02 12:04:29 51°21.816 2°35.558 12.5686 4.039416 34.653469 22.882751
2006-06-02 12:05:29 51°21.69 2°35.23 12.4777 4.036254 34.606675 22.815332
2006-06-02 12:06:28 51°21.575 2°34.899 12.4533 4.026349 34.642564 22.882751
2006-06-02 12:07:29 51°21.458 2°34.555 12.4464 4.024979 34.641662 22.849042
2006-06-02 12:08:29 51°21.344 2°34.213 12.6497 4.026032 34.59488 22.747913
2006-06-02 12:09:28 51°21.228 2°33.878 12.7553 4.033723 34.527359 22.646785
2006-06-02 12:10:29 51°21.108 2°33.535 12.5667 4.041206 34.594593 22.714204
2006-06-02 12:11:28 51°20.995 2°33.203 12.6484 4.031723 34.625739 22.815332
2006-06-02 12:12:29 51°20.882 2°32.854 12.9075 4.044262 34.530252 22.646785
2006-06-02 12:13:29 51°20.765 2°32.516 12.6888 4.055959 34.527907 22.613076
2006-06-02 12:14:28 51°20.651 2°32.181 12.588 4.039837 34.621609 22.781623
2006-06-02 12:15:29 51°20.533 2°31.837 12.5526 4.033092 34.611561 22.747913
2006-06-02 12:16:28 51°20.421 2°31.502 12.5132 4.028561 34.604045 22.849042
2006-06-02 12:17:29 51°20.307 2°31.154 12.5025 4.025083 34.595129 22.815332
2006-06-02 12:18:29 51°20.197 2°30.809 12.4788 4.023608 34.59032 22.882751
2006-06-02 12:19:28 51°20.095 2°30.495 12.4495 4.020868 34.58992 22.91646
2006-06-02 12:20:29 51°20.058 2°30.217 12.4563 4.019182 34.585244 22.882751
2006-06-02 12:21:29 51°20.018 2°30.03 12.4716 4.019182 34.583083 22.849042
2006-06-02 12:22:29 51°19.987 2°29.973 12.4788 4.020446 34.584431 22.815332
2006-06-02 12:23:30 51°19.978 2°29.93 12.4745 4.020868 34.5856 22.849042
2006-06-02 12:24:29 51°19.963 2°29.9 12.4749 4.020446 34.583711 22.95017
2006-06-02 12:25:29 51°19.95 2°29.87 12.4787 4.020657 34.582136 23.017589
2006-06-02 12:26:29 51°19.939 2°29.843 12.4826 4.019392 34.569272 23.051298
2006-06-02 12:27:28 51°19.928 2°29.82 12.4871 4.02129 34.58533 23.017589
2006-06-02 12:28:29 51°19.917 2°29.792 12.4854 4.021711 34.58434 23.051298
2006-06-02 12:29:29 51°19.908 2°29.763 12.4918 4.021711 34.582901 23.017589
2006-06-02 12:30:29 51°19.899 2°29.753 12.4916 4.022027 34.583778 23.017589
2006-06-02 12:31:28 51°19.866 2°29.856 12.4877 4.022027 34.585217 23.017589
2006-06-02 12:32:29 51°19.771 2°30.055 12.4824 4.021922 34.584924 22.849042
2006-06-02 12:33:29 51°19.654 2°30.303 12.4791 4.020446 34.582271 22.815332
2006-06-02 12:34:29 51°19.526 2°30.555 12.4708 4.020025 34.579662 22.781623
2006-06-02 12:35:28 51°19.399 2°30.806 12.616 4.019498 34.570284 22.781623
2006-06-02 12:36:29 51°19.27 2°31.067 13.013 4.03193 34.419814 22.646785
2006-06-02 12:37:29 51°19.141 2°31.321 13.0316 4.03804 34.240194 22.714204
2006-06-02 12:38:29 51°19.011 2°31.575 12.843 4.034879 34.296602 22.849042
2006-06-02 12:39:29 51°18.882 2°31.83 12.8194 4.028241 34.337918 22.849042
2006-06-02 12:40:29 51°18.754 2°32.086 12.8341 4.027503 34.33019 22.91646
2006-06-02 12:41:28 51°18.628 2°32.342 12.812 4.02666 34.320753 22.95017
2006-06-02 12:42:29 51°18.496 2°32.606 12.7786 4.023288 34.317639 23.017589
2006-06-02 12:43:29 51°18.366 2°32.87 12.7701 4.01981 34.310692 23.118717
2006-06-02 12:44:29 51°18.236 2°33.135 12.7763 4.017492 34.290723 23.186136
2006-06-02 12:45:29 51°18.106 2°33.396 12.7846 4.015384 34.258626 23.320973
2006-06-02 12:46:29 51°17.978 2°33.658 12.785 4.013487 34.236323 23.354683
2006-06-02 12:47:29 51°17.848 2°33.917 12.819 4.010957 34.21083 23.455811
2006-06-02 12:48:29 51°17.722 2°34.18 12.8235 4.009903 34.164171 23.287264
2006-06-02 12:49:28 51°17.598 2°34.442 12.7958 4.005266 34.146799 23.354683
2006-06-02 12:50:29 51°17.473 2°34.708 12.8308 4.003052 34.121521 23.455811
2006-06-02 12:51:29 51°17.351 2°34.969 12.8266 4.00379 34.101837 23.52323
2006-06-02 12:52:29 51°17.224 2°35.23 12.8125 4.001471 34.088922 23.624358
2006-06-02 12:53:28 51°17.106 2°35.497 12.8 3.998942 34.07821 23.725486
2006-06-02 12:54:29 51°16.993 2°35.783 12.7914 3.996729 34.070501 23.759195
2006-06-02 12:55:29 51°16.88 2°36.06 12.9897 3.996202 34.054257 23.725486
2006-06-02 12:56:29 51°16.779 2°36.305 13.0604 3.997991 33.902307 23.52323
2006-06-02 12:57:29 51°16.715 2°36.429 13.0219 3.996831 33.84904 23.624358
2006-06-02 12:58:29 51°16.678 2°36.49 13.0537 3.991878 33.822995 23.691777
2006-06-02 12:59:29 51°16.662 2°36.474 13.0658 3.993459 33.800578 23.691777
2006-06-02 13:00:29 51°16.646 2°36.447 13.0326 3.992721 33.80951 23.860324
2006-06-02 13:01:29 51°16.63 2°36.418 13.0248 3.991246 33.810095 23.995161
2006-06-02 13:02:29 51°16.614 2°36.388 13.0562 3.991246 33.806636 23.995161
2006-06-02 13:03:28 51°16.598 2°36.358 13.0647 3.992932 33.802513 23.995161
2006-06-02 13:04:29 51°16.581 2°36.327 13.0502 3.994196 33.808928 24.096289
2006-06-02 13:05:29 51°16.567 2°36.317 13.0898 3.993459 33.812331 24.197418
2006-06-02 13:06:29 51°16.554 2°36.453 13.0811 3.996514 33.796278 24.06258
2006-06-02 13:07:29 51°16.459 2°36.676 12.972 3.993143 33.815569 24.028871
2006-06-02 13:08:29 51°16.282 2°36.86 12.9618 3.984818 33.807468 23.995161
2006-06-02 13:09:29 51°16.108 2°37.056 12.9514 3.98271 33.789596 23.995161
2006-06-02 13:10:29 51°15.938 2°37.259 12.9357 3.981024 33.784721 23.961452
2006-06-02 13:11:29 51°15.762 2°37.448 12.9161 3.979444 33.78431 24.06258
2006-06-02 13:12:29 51°15.585 2°37.635 12.9153 3.976282 33.765455 24.163708
2006-06-02 13:13:29 51°15.41 2°37.827 12.9051 3.97312 33.742434 24.163708
2006-06-02 13:14:29 51°15.232 2°38.014 12.9099 3.971434 33.72923 24.163708
2006-06-02 13:15:29 51°15.057 2°38.211 12.919 3.971013 33.712772 24.163708
2006-06-02 13:16:28 51°14.883 2°38.405 12.8918 3.965849 33.66871 24.163708
2006-06-02 13:17:29 51°14.694 2°38.585 12.8801 3.961423 33.645451 24.096289
2006-06-02 13:18:29 51°14.482 2°38.695 12.8607 3.963531 33.684799 24.129999
2006-06-02 13:19:29 51°14.273 2°38.81 12.88 3.973543 33.780425 24.096289
2006-06-02 13:20:29 51°14.057 2°38.883 12.8846 3.987664 33.899762 24.163708
2006-06-02 13:21:28 51°13.836 2°38.891 12.8588 3.99852 34.008344 24.399674
2006-06-02 13:22:29 51°13.622 2°38.774 12.8431 3.995042 33.999801 24.500802
2006-06-02 13:23:28 51°13.427 2°38.604 12.89 3.9903 33.960356 24.433383
2006-06-02 13:24:29 51°13.217 2°38.435 12.9914 3.98661 33.82859 24.163708
2006-06-02 13:25:29 51°13.01 2°38.277 12.9772 3.984607 33.78469 24.163708
2006-06-02 13:26:29 51°12.802 2°38.12 12.9712 3.977546 33.722741 24.231127
2006-06-02 13:27:29 51°12.596 2°37.964 12.9245 3.973541 33.707664 24.332255
2006-06-02 13:28:29 51°12.389 2°37.811 12.9042 3.965427 33.658498 24.365965
2006-06-02 13:29:29 51°12.179 2°37.663 12.8831 3.961528 33.640229 24.500802
2006-06-02 13:30:28 51°11.971 2°37.527 12.8581 3.961739 33.660896 24.60193
2006-06-02 13:31:29 51°11.756 2°37.386 12.8546 3.964479 33.701413 24.736768
2006-06-02 13:32:29 51°11.545 2°37.24 12.8768 3.969116 33.748859 24.804187
2006-06-02 13:33:29 51°11.346 2°37.053 12.9285 3.975018 33.774281 24.63564
2006-06-02 13:34:29 51°11.156 2°36.845 12.9436 3.987031 33.845771 24.500802
2006-06-02 13:35:29 51°10.968 2°36.635 12.9192 3.99599 33.936206 24.467093
2006-06-02 13:36:29 51°10.778 2°36.437 12.8943 3.999889 33.994793 24.365965
2006-06-02 13:37:28 51°10.594 2°36.24 12.8302 4.000311 34.035846 24.365965
2006-06-02 13:38:29 51°10.397 2°36.051 12.8291 3.99715 34.03803 24.332255
2006-06-02 13:39:29 51°10.189 2°35.921 12.8351 4.000312 34.066675 24.298546
2006-06-02 13:40:29 51°9.973 2°35.952 13.0043 4.007478 34.129174 24.197418
2006-06-02 13:41:29 51°9.791 2°36.108 13.0934 3.982182 33.679648 23.961452
2006-06-02 13:42:29 51°9.701 2°36.39 13.1634 3.972908 33.590786 24.06258
2006-06-02 13:43:28 51°9.708 2°36.7 13.2146 3.970904 33.48776 24.163708
2006-06-02 13:44:29 51°9.768 2°37.01 13.1164 3.966582 33.394061 24.264836
2006-06-02 13:45:29 51°9.849 2°37.3 13.113 3.964371 33.521935 24.534512
2006-06-02 13:46:29 51°9.943 2°37.584 13.0382 3.958364 33.427031 24.534512
2006-06-02 13:47:29 51°10.034 2°37.869 13.0743 3.954781 33.448596 24.63564
2006-06-02 13:48:29 51°10.124 2°38.155 13.0706 3.949828 33.379356 24.703059
2006-06-02 13:49:29 51°10.214 2°38.441 13.0667 3.94203 33.315405 24.804187
2006-06-02 13:50:29 51°10.301 2°38.732 13.0848 3.936234 33.256712 24.905315
2006-06-02 13:51:29 51°10.384 2°39.024 13.1182 3.930227 33.191315 24.939024
2006-06-02 13:52:29 51°10.465 2°39.317 13.1202 3.925062 33.094704 24.871606
2006-06-02 13:53:29 51°10.549 2°39.609 13.0986 3.920742 33.066234 24.939024
2006-06-02 13:54:29 51°10.622 2°39.908 13.0988 3.913681 33.013337 24.939024
2006-06-02 13:55:29 51°10.687 2°40.213 13.1684 3.908728 32.970137 25.107571
2006-06-02 13:56:29 51°10.751 2°40.518 13.1861 3.911046 32.93211 25.006443
2006-06-02 13:57:29 51°10.811 2°40.809 13.2002 3.905672 32.884355 25.141281
2006-06-02 13:58:29 51°10.859 2°41.054 13.2142 3.900929 32.816464 25.2087
2006-06-02 13:59:28 51°10.909 2°41.286 13.2895 3.897978 32.745483 25.073862
2006-06-02 14:00:29 51°10.952 2°41.512 13.2426 3.898715 32.721799 25.107571
2006-06-02 14:01:29 51°10.987 2°41.68 13.2776 3.895554 32.72745 25.040153
2006-06-02 14:02:29 51°11.014 2°41.792 13.3282 3.894816 32.671407 24.939024
2006-06-02 14:03:29 51°11.044 2°41.908 13.3784 3.896712 32.643438 24.905315
2006-06-02 14:04:29 51°11.079 2°42.047 13.3138 3.888176 32.562455 24.972734
2006-06-02 14:05:29 51°11.081 2°42.063 13.31 3.905143 32.750679 25.073862
2006-06-02 14:06:29 51°11.079 2°42.068 13.2952 3.907777 32.785276 25.276118
2006-06-02 14:07:29 51°11.075 2°42.076 13.2241 3.908094 32.811532 25.478375
2006-06-02 14:08:29 51°11.068 2°42.083 13.2095 3.906303 32.838781 25.613212
2006-06-02 14:09:29 51°11.061 2°42.093 13.1935 3.906303 32.858828 25.714341
2006-06-02 14:10:29 51°11.052 2°42.103 13.2056 3.905987 32.861883 25.714341
2006-06-02 14:11:29 51°11.043 2°42.118 13.228 3.907673 32.861641 25.680631
2006-06-02 14:12:29 51°11.025 2°42.213 13.3017 3.909148 32.86143 25.545794
2006-06-02 14:13:29 51°11.011 2°42.429 13.4319 3.910095 32.780355 25.309828
2006-06-02 14:14:29 51°11.014 2°42.725 13.2935 3.897976 32.596478 25.17499
2006-06-02 14:15:29 51°11.061 2°43.047 13.2431 3.880696 32.612921 25.478375
2006-06-02 14:16:29 51°11.114 2°43.371 13.176 3.871001 32.49903 25.579503
2006-06-02 14:17:29 51°11.175 2°43.692 13.2425 3.866998 32.536324 25.984016
2006-06-02 14:18:29 51°11.239 2°44.013 13.2548 3.867629 32.436511 25.950306
2006-06-02 14:19:29 51°11.309 2°44.331 13.1545 3.857303 32.37687 26.354819
2006-06-02 14:20:29 51°11.38 2°44.648 13.0813 3.84329 32.346509 26.826751
2006-06-02 14:21:29 51°11.45 2°44.965 13.1057 3.831278 32.250391 26.826751
2006-06-02 14:22:29 51°11.52 2°45.284 13.0976 3.830013 32.219468 26.961589
2006-06-02 14:23:29 51°11.588 2°45.605 13.1711 3.82506 32.175708 27.062717
2006-06-02 14:24:29 51°11.657 2°45.925 13.1861 3.826956 32.12337 26.995298
2006-06-02 14:25:29 51°11.728 2°46.245 13.1667 3.82369 32.101335 27.163845
2006-06-02 14:26:29 51°11.787 2°46.571 13.1708 3.821266 32.09044 27.298683
2006-06-02 14:27:29 51°11.849 2°46.895 13.1636 3.818527 32.07005 27.534648
2006-06-02 14:28:29 51°11.909 2°47.221 13.3102 3.817999 32.018181 27.46723
2006-06-02 14:29:29 51°11.968 2°47.547 13.4013 3.82432 31.957697 27.602067
2006-06-02 14:30:29 51°12.024 2°47.877 13.5194 3.834434 31.970937 27.231264
2006-06-02 14:31:29 51°12.106 2°48.189 13.4988 3.842968 31.980478 27.332392
2006-06-02 14:32:29 51°12.202 2°48.496 13.2933 3.823371 31.904961 28.309965
2006-06-02 14:33:29 51°12.31 2°48.791 13.3431 3.807146 31.864415 28.647059
2006-06-02 14:34:29 51°12.42 2°49.085 13.3031 3.807777 31.816728 28.613349
2006-06-02 14:35:28 51°12.535 2°49.365 13.4597 3.804616 31.759676 28.411093
2006-06-02 14:36:29 51°12.652 2°49.658 13.4898 3.809673 31.778386 28.444802
2006-06-02 14:37:29 51°12.768 2°49.945 13.4163 3.817364 31.80675 28.444802
2006-06-02 14:38:29 51°12.886 2°50.231 13.3137 3.803668 31.781086 28.950443
2006-06-02 14:39:29 51°13.004 2°50.518 13.2878 3.798821 31.76561 29.220118
2006-06-02 14:40:28 51°13.119 2°50.804 13.3213 3.795976 31.715346 29.321247
2006-06-02 14:41:29 51°13.236 2°51.1 13.1339 3.782701 31.642571 29.321247
2006-06-02 14:42:29 51°13.348 2°51.397 13.0844 3.767741 31.616287 29.523503
2006-06-02 14:43:28 51°13.463 2°51.685 13.0611 3.758786 31.582241 29.658341
2006-06-02 14:44:29 51°13.584 2°51.984 13.2023 3.753096 31.535499 29.624631
2006-06-02 14:45:27 51°13.699 2°52.27 13.095 3.762261 31.513777 29.523503
2006-06-02 14:46:29 51°13.826 2°52.572 13.0734 3.754677 31.531604 29.793178
2006-06-02 14:47:29 51°13.95 2°52.864 13.0555 3.754466 31.538644 29.793178
2006-06-02 14:48:29 51°14.064 2°53.169 13.1032 3.751937 31.522091 29.826888
2006-06-02 14:49:29 51°14.179 2°53.472 13.094 3.750989 31.493941 29.928016
2006-06-02 14:50:28 51°14.277 2°53.786 13.0432 3.749198 31.490061 29.961725
2006-06-02 14:51:29 51°14.359 2°54.124 12.9927 3.741402 31.459605 29.961725
2006-06-02 14:52:28 51°14.402 2°54.466 12.9378 3.737609 31.45757 29.995435
2006-06-02 14:53:28 51°14.404 2°54.788 13.0465 3.731605 31.441253 29.961725
2006-06-02 14:54:28 51°14.352 2°55.053 12.9678 3.726652 31.314006 29.759469
2006-06-02 14:55:29 51°14.279 2°55.224 13.33 3.659646 30.621814 29.354956
2006-06-02 14:56:28 51°14.206 2°55.346 13.5423 1.79084 13.895068 39.973418
2006-06-02 14:57:28 51°14.126 2°55.427 13.6949 0.047441 0.297097 39.636324
2006-06-02 14:58:29 51°14.043 2°55.489 13.7741 0.043599 0.272254 39.198101
2006-06-02 14:59:28 51°13.966 2°55.547 13.8797 0.041418 0.25799 39.400358
2006-06-02 15:00:28 51°13.883 2°55.6 13.9796 0.040587 0.252347 39.501486
2006-06-02 15:01:28 51°13.796 2°55.656 14.0609 0.039964 0.24802 39.535195
2006-06-02 15:02:28 51°13.725 2°55.744 14.1335 0.039238 0.243027 39.332939
2006-06-02 15:03:28 51°13.671 2°55.862 14.2271 0.038615 0.238694 39.602614
2006-06-02 15:04:28 51°13.634 2°55.979 14.3557 0.313748 1.727889 39.434067
2006-06-02 15:05:28 51°13.615 2°56.058 14.5337 0.082543 0.424772 39.400358
2006-06-02 15:06:29 51°13.604 2°56.09 14.7676 0.065093 0.33403 37.445212
2006-06-02 15:07:28 51°13.6 2°56.098 14.858 0.060108 0.309065 37.478922